Time;durP1;ratioP1;P1;durP2;ratioP2;P2;SDS_P1;SDS_P2;PMS_P1;PMS_P2;Temp;Humidity;BMP_temperature;BMP_pressure;BME280_temperature;BME280_humidity;BME280_pressure;Samples;Min_cycle;Max_cycle;Signal;HPM_P1;HPM_P2
2023/12/19 00:04:00;;;;;;;7.07;6.47;;;3.10;42.90;;;;;;10478818;28;20313;-75
2023/12/19 00:09:03;;;;;;;7.23;6.53;;;3.10;42.60;;;;;;10478017;28;20604;-74
2023/12/19 00:14:08;;;;;;;7.97;7.27;;;3.10;42.70;;;;;;10478591;28;20239;-74
2023/12/19 00:19:12;;;;;;;8.00;7.30;;;2.90;42.90;;;;;;10478616;28;20317;-74
2023/12/19 00:24:16;;;;;;;8.33;7.63;;;2.90;43.20;;;;;;10477847;28;20294;-74
2023/12/19 00:29:20;;;;;;;8.20;7.43;;;3.00;43.30;;;;;;10477856;28;20279;-74
2023/12/19 00:34:24;;;;;;;8.47;7.77;;;3.00;43.10;;;;;;10477966;28;20779;-74
2023/12/19 00:39:32;;;;;;;7.90;7.10;;;3.00;43.20;;;;;;10477023;28;20236;-74
2023/12/19 00:44:37;;;;;;;8.47;7.67;;;3.00;43.20;;;;;;10484594;28;20224;-74
2023/12/19 00:49:40;;;;;;;8.00;7.30;;;3.00;43.30;;;;;;10486222;28;20324;-75
2023/12/19 00:54:43;;;;;;;8.70;7.90;;;3.10;43.10;;;;;;10486027;28;20315;-74
2023/12/19 00:59:48;;;;;;;9.70;8.83;;;3.10;42.80;;;;;;10485690;28;20265;-74
2023/12/19 01:04:51;;;;;;;9.90;9.00;;;3.00;42.80;;;;;;10485695;28;20601;-74
2023/12/19 01:09:55;;;;;;;13.77;12.20;;;3.00;42.70;;;;;;10485260;28;20313;-74
2023/12/19 01:14:59;;;;;;;17.43;13.30;;;3.10;42.90;;;;;;10483124;28;20228;-74
2023/12/19 01:20:03;;;;;;;16.30;13.97;;;3.10;42.90;;;;;;10483273;28;20779;-74
2023/12/19 01:25:07;;;;;;;16.90;13.63;;;3.00;42.70;;;;;;10483537;28;20240;-73
2023/12/19 01:30:12;;;;;;;11.43;10.27;;;2.90;42.60;;;;;;10483748;28;20236;-75
2023/12/19 01:35:16;;;;;;;9.60;8.60;;;2.90;42.60;;;;;;10484031;28;20236;-75
2023/12/19 01:40:19;;;;;;;10.80;9.77;;;2.90;42.60;;;;;;10484616;28;20229;-74
2023/12/19 01:45:27;;;;;;;13.13;11.37;;;2.80;42.40;;;;;;10483270;28;20240;-74
2023/12/19 01:50:30;;;;;;;11.63;10.40;;;2.80;42.20;;;;;;10483371;28;20285;-74
2023/12/19 01:55:34;;;;;;;14.97;13.13;;;2.90;42.60;;;;;;10482884;28;20244;-74
2023/12/19 02:00:39;;;;;;;16.77;14.30;;;2.70;42.50;;;;;;10483280;28;20228;-74
2023/12/19 02:05:44;;;;;;;15.10;13.50;;;2.70;42.40;;;;;;10482372;28;20243;-74
2023/12/19 02:10:48;;;;;;;13.87;12.33;;;2.50;42.50;;;;;;10482697;28;20319;-74
2023/12/19 02:15:53;;;;;;;14.07;12.60;;;2.40;42.90;;;;;;10482812;28;20242;-74
2023/12/19 02:20:57;;;;;;;13.70;11.87;;;2.40;42.70;;;;;;10482005;28;20238;-74
2023/12/19 02:26:02;;;;;;;12.80;11.50;;;2.20;42.70;;;;;;10481978;28;20247;-74
2023/12/19 02:31:05;;;;;;;13.60;12.20;;;2.20;43.20;;;;;;10482392;28;20315;-74
2023/12/19 02:36:08;;;;;;;15.17;13.57;;;2.20;43.40;;;;;;10481684;28;20244;-74
2023/12/19 02:41:13;;;;;;;14.50;13.00;;;2.20;43.30;;;;;;10481890;28;20235;-75
2023/12/19 02:46:16;;;;;;;14.37;12.87;;;2.20;43.20;;;;;;10481722;28;20321;-74
2023/12/19 02:51:20;;;;;;;15.47;13.87;;;2.00;43.20;;;;;;10480809;28;20239;-74
2023/12/19 02:56:27;;;;;;;14.17;12.80;;;2.00;43.30;;;;;;10480719;28;20240;-74
2023/12/19 03:01:31;;;;;;;14.10;12.60;;;1.90;43.40;;;;;;10480993;28;20228;-74
2023/12/19 03:06:34;;;;;;;12.63;11.43;;;2.00;43.50;;;;;;10479103;28;20604;-74
2023/12/19 03:11:40;;;;;;;12.27;11.07;;;2.00;43.40;;;;;;10480355;28;20677;-74
2023/12/19 03:16:43;;;;;;;12.23;10.97;;;2.00;43.60;;;;;;10481080;28;20265;-74
2023/12/19 03:21:46;;;;;;;12.30;11.00;;;2.10;43.60;;;;;;10469017;28;20332;-74
2023/12/19 03:26:50;;;;;;;12.67;11.40;;;2.20;43.50;;;;;;10437908;28;20718;-74
2023/12/19 03:31:53;;;;;;;12.30;10.97;;;2.30;43.30;;;;;;10438705;28;20225;-74
2023/12/19 03:36:57;;;;;;;11.47;10.33;;;2.30;43.20;;;;;;10437984;28;20228;-74
2023/12/19 03:42:02;;;;;;;11.80;10.60;;;2.30;43.20;;;;;;10437213;28;20232;-74
2023/12/19 03:47:15;;;;;;;12.37;11.20;;;2.30;43.20;;;;;;10437061;28;20315;-75
2023/12/19 03:52:18;;;;;;;11.70;10.50;;;2.30;43.20;;;;;;10437693;28;21136;-75
2023/12/19 03:57:23;;;;;;;11.73;10.53;;;2.40;43.20;;;;;;10437057;28;20279;-74
2023/12/19 04:02:26;;;;;;;10.63;9.63;;;2.40;43.20;;;;;;10436745;28;20302;-74
2023/12/19 04:07:29;;;;;;;11.53;10.43;;;2.50;43.00;;;;;;10437779;28;20229;-74
2023/12/19 04:12:33;;;;;;;12.60;11.30;;;2.40;42.80;;;;;;10436678;28;20316;-74
2023/12/19 04:17:37;;;;;;;11.53;10.43;;;2.40;42.70;;;;;;10435700;28;20236;-74
2023/12/19 04:22:40;;;;;;;11.93;10.70;;;2.20;42.80;;;;;;10436911;28;20224;-74
2023/12/19 04:27:45;;;;;;;11.83;10.63;;;2.10;43.10;;;;;;10435999;28;20687;-74
2023/12/19 04:32:48;;;;;;;11.53;10.10;;;2.10;43.20;;;;;;10435922;28;20322;-74
2023/12/19 04:37:51;;;;;;;10.17;9.17;;;2.10;43.10;;;;;;10436868;28;20794;-74
2023/12/19 04:42:56;;;;;;;10.07;9.07;;;2.00;43.30;;;;;;10435567;28;20247;-74
2023/12/19 04:47:59;;;;;;;9.73;8.80;;;1.90;43.70;;;;;;10435553;28;20236;-74
2023/12/19 04:53:02;;;;;;;9.13;8.00;;;1.90;43.70;;;;;;10436068;28;20927;-74
2023/12/19 04:58:07;;;;;;;10.20;9.20;;;2.00;43.70;;;;;;10435812;28;20312;-74
2023/12/19 05:03:10;;;;;;;10.27;9.27;;;2.00;43.40;;;;;;10435845;28;20235;-74
2023/12/19 05:08:15;;;;;;;10.13;9.13;;;2.00;43.40;;;;;;10436360;28;20237;-74
2023/12/19 05:13:19;;;;;;;10.57;9.20;;;2.10;43.40;;;;;;10435495;28;20619;-74
2023/12/19 05:18:22;;;;;;;10.27;9.17;;;2.10;43.20;;;;;;10435437;28;20239;-74
2023/12/19 05:23:26;;;;;;;10.13;8.93;;;2.00;43.20;;;;;;10435535;28;20233;-74
2023/12/19 05:28:30;;;;;;;9.10;8.20;;;2.00;43.40;;;;;;10438002;28;20247;-74
2023/12/19 05:33:35;;;;;;;9.83;8.83;;;2.00;43.30;;;;;;10442868;28;20239;-75
2023/12/19 05:38:38;;;;;;;13.77;11.97;;;2.10;43.30;;;;;;10443319;28;20237;-74
2023/12/19 05:43:43;;;;;;;13.13;11.33;;;2.00;43.00;;;;;;10441832;28;20244;-76
2023/12/19 05:48:46;;;;;;;13.30;11.47;;;2.00;43.00;;;;;;10447219;28;20312;-77
2023/12/19 05:53:49;;;;;;;13.00;10.97;;;2.10;43.20;;;;;;10450301;28;20235;-77
2023/12/19 05:58:54;;;;;;;11.30;9.17;;;2.10;43.10;;;;;;10449020;28;20766;-77
2023/12/19 06:04:06;;;;;;;10.23;8.67;;;2.00;43.10;;;;;;10448636;28;20229;-76
2023/12/19 06:09:11;;;;;;;13.37;11.63;;;2.00;43.10;;;;;;10447465;28;20245;-76
2023/12/19 06:14:15;;;;;;;11.43;10.23;;;2.00;43.00;;;;;;10436919;28;20723;-76
2023/12/19 06:19:19;;;;;;;11.57;9.77;;;2.00;43.40;;;;;;10444748;28;20255;-76
2023/12/19 06:24:22;;;;;;;10.60;9.50;;;2.00;43.70;;;;;;10445571;28;20232;-76
2023/12/19 06:29:27;;;;;;;11.03;9.77;;;2.00;44.20;;;;;;10448684;28;20637;-77
2023/12/19 06:34:35;;;;;;;10.07;9.03;;;2.10;44.30;;;;;;10449012;28;20256;-77
2023/12/19 06:39:39;;;;;;;9.37;8.43;;;2.10;43.70;;;;;;10448635;28;20233;-76
2023/12/19 06:44:44;;;;;;;10.43;9.33;;;2.20;43.60;;;;;;10447784;28;20307;-77
2023/12/19 06:49:48;;;;;;;12.47;10.37;;;2.10;43.20;;;;;;10446902;28;20243;-75
2023/12/19 06:54:53;;;;;;;14.73;11.70;;;2.30;43.40;;;;;;10444128;28;20225;-76
2023/12/19 06:59:58;;;;;;;12.87;11.57;;;2.20;43.00;;;;;;10446383;28;20235;-76
2023/12/19 07:05:01;;;;;;;10.17;9.07;;;2.10;42.90;;;;;;10447046;28;20247;-76
2023/12/19 07:10:04;;;;;;;11.57;8.57;;;2.10;43.20;;;;;;10444564;28;20257;-76
2023/12/19 07:15:10;;;;;;;9.90;8.67;;;2.00;43.10;;;;;;10419815;28;20237;-76
2023/12/19 07:20:13;;;;;;;9.80;8.50;;;1.90;43.20;;;;;;10418067;28;20631;-78
2023/12/19 07:25:17;;;;;;;10.83;9.60;;;1.90;43.40;;;;;;10437043;28;20270;-78
2023/12/19 07:30:21;;;;;;;10.47;9.37;;;1.90;43.40;;;;;;10436175;28;20308;-78
2023/12/19 07:35:24;;;;;;;13.30;10.20;;;1.90;43.40;;;;;;10436777;28;20233;-78
2023/12/19 07:40:36;;;;;;;9.57;8.50;;;1.80;43.40;;;;;;10437182;28;20225;-78
2023/12/19 07:45:41;;;;;;;10.77;9.67;;;1.90;43.80;;;;;;10419920;28;20243;-78
2023/12/19 07:50:44;;;;;;;10.80;9.67;;;2.00;44.20;;;;;;10435394;28;20236;-78
2023/12/19 07:55:47;;;;;;;11.30;10.03;;;2.00;44.40;;;;;;10436916;28;20263;-78
2023/12/19 08:00:51;;;;;;;18.40;13.87;;;2.20;44.80;;;;;;10434996;28;20243;-78
2023/12/19 08:05:56;;;;;;;17.23;14.03;;;2.50;45.00;;;;;;10429041;28;20236;-77
2023/12/19 08:10:59;;;;;;;16.90;13.80;;;2.70;45.20;;;;;;10433326;28;20339;-77
2023/12/19 08:16:04;;;;;;;17.17;14.03;;;3.00;45.20;;;;;;10435829;28;20247;-77
2023/12/19 08:21:08;;;;;;;20.77;14.27;;;3.20;45.90;;;;;;10435178;28;20259;-77
2023/12/19 08:26:11;;;;;;;18.03;13.77;;;3.60;45.40;;;;;;10434905;28;20271;-76
2023/12/19 08:31:16;;;;;;;13.90;11.00;;;3.70;45.30;;;;;;10434669;28;20282;-77
2023/12/19 08:36:19;;;;;;;15.50;12.97;;;4.00;45.20;;;;;;10427123;28;20225;-76
2023/12/19 08:41:37;;;;;;;11.40;9.43;;;4.20;45.20;;;;;;10430282;28;20232;-76
2023/12/19 08:46:41;;;;;;;9.80;8.37;;;4.50;45.20;;;;;;10432745;28;20237;-77
2023/12/19 08:51:48;;;;;;;12.63;8.93;;;4.80;45.20;;;;;;10435699;28;20233;-77
2023/12/19 08:56:52;;;;;;;9.00;8.07;;;5.00;44.90;;;;;;10435126;28;20598;-77
2023/12/19 09:01:56;;;;;;;9.63;8.60;;;5.30;45.00;;;;;;10436969;28;20224;-76
2023/12/19 09:07:00;;;;;;;10.17;8.87;;;5.50;44.60;;;;;;10444165;28;20237;-77
2023/12/19 09:12:04;;;;;;;8.97;8.10;;;5.70;44.60;;;;;;10442333;28;20239;-76
2023/12/19 09:17:08;;;;;;;8.37;7.57;;;5.80;44.40;;;;;;10442741;28;20359;-76
2023/12/19 09:22:14;;;;;;;17.47;14.23;;;5.90;44.20;;;;;;10443228;28;20243;-76
2023/12/19 09:27:17;;;;;;;29.00;22.73;;;6.00;44.10;;;;;;10443231;28;20260;-76
2023/12/19 09:32:22;;;;;;;17.67;13.53;;;6.00;44.10;;;;;;10433236;28;20229;-76
2023/12/19 09:37:26;;;;;;;19.33;14.40;;;6.00;44.10;;;;;;10443539;28;20232;-76
2023/12/19 09:42:31;;;;;;;13.43;12.03;;;6.10;44.50;;;;;;10443230;28;20233;-76
2023/12/19 09:47:39;;;;;;;11.77;8.90;;;6.10;44.90;;;;;;10443542;28;20723;-77
2023/12/19 09:52:43;;;;;;;9.27;7.70;;;6.20;44.90;;;;;;10443919;28;20235;-77
2023/12/19 09:57:48;;;;;;;7.27;6.57;;;6.40;45.10;;;;;;10444217;28;20229;-77
2023/12/19 10:02:54;;;;;;;6.70;6.07;;;6.50;45.10;;;;;;10443889;28;20264;-77
2023/12/19 10:07:58;;;;;;;6.80;5.87;;;6.60;45.10;;;;;;10444937;28;20233;-77
2023/12/19 10:13:01;;;;;;;7.17;6.47;;;6.70;45.20;;;;;;10444717;28;20700;-77
2023/12/19 10:18:12;;;;;;;12.97;8.27;;;6.90;45.30;;;;;;10445563;28;20236;-77
2023/12/19 10:23:21;;;;;;;8.50;7.60;;;7.20;45.30;;;;;;10445018;28;20295;-78
2023/12/19 10:28:24;;;;;;;6.67;5.60;;;7.40;45.20;;;;;;10446553;28;20235;-78
2023/12/19 10:33:29;;;;;;;6.10;5.30;;;7.60;44.90;;;;;;10448666;28;20229;-78
2023/12/19 10:38:45;;;;;;;7.23;5.43;;;7.60;44.80;;;;;;10447298;28;20241;-77
2023/12/19 10:43:50;;;;;;;7.07;5.43;;;7.70;44.90;;;;;;10447364;28;20230;-78
2023/12/19 10:48:56;;;;;;;7.67;6.87;;;7.90;45.10;;;;;;10448472;28;20237;-78
2023/12/19 10:54:08;;;;;;;7.80;7.10;;;8.00;45.20;;;;;;10447263;28;20231;-78
2023/12/19 10:59:20;;;;;;;7.67;6.60;;;8.20;44.80;;;;;;10447528;28;20316;-78
2023/12/19 11:04:27;;;;;;;12.47;8.87;;;8.30;44.60;;;;;;10435164;28;20229;-76
2023/12/19 11:09:34;;;;;;;8.40;6.83;;;8.50;45.30;;;;;;10438831;28;20244;-76
2023/12/19 11:14:38;;;;;;;5.73;5.23;;;8.70;45.00;;;;;;10441072;28;20328;-75
2023/12/19 11:19:50;;;;;;;5.77;5.20;;;8.90;45.00;;;;;;10436762;28;20715;-75
2023/12/19 11:25:01;;;;;;;7.80;7.00;;;9.10;44.10;;;;;;10436261;28;20311;-75
2023/12/19 11:30:06;;;;;;;6.90;6.30;;;9.30;44.30;;;;;;10436022;28;20257;-74
2023/12/19 11:35:12;;;;;;;7.20;6.60;;;9.50;44.50;;;;;;10427975;28;20248;-74
2023/12/19 11:40:50;;;;;;;7.83;7.10;;;9.60;43.90;;;;;;10431695;28;20236;-74
2023/12/19 11:45:54;;;;;;;6.80;6.20;;;9.80;43.30;;;;;;10425902;28;20316;-72
2023/12/19 11:50:58;;;;;;;7.60;6.10;;;10.00;43.10;;;;;;10417409;28;20249;-74
2023/12/19 11:56:05;;;;;;;5.57;5.07;;;10.10;42.60;;;;;;10434981;28;20244;-72
2023/12/19 12:01:08;;;;;;;6.10;5.53;;;10.20;42.60;;;;;;10404604;28;20307;-74
2023/12/19 12:06:13;;;;;;;5.47;4.97;;;10.30;42.50;;;;;;10401385;28;20708;-73
2023/12/19 12:11:17;;;;;;;5.60;5.10;;;10.40;42.10;;;;;;10406210;28;20268;-71
2023/12/19 12:16:20;;;;;;;6.03;5.10;;;10.40;42.30;;;;;;10430641;28;20263;-74
2023/12/19 12:21:24;;;;;;;6.13;5.10;;;10.50;42.20;;;;;;10442393;28;20303;-71
2023/12/19 12:26:27;;;;;;;7.87;6.80;;;10.50;42.10;;;;;;10444272;28;20237;-76
2023/12/19 12:31:31;;;;;;;7.50;6.80;;;10.50;42.50;;;;;;10445096;28;20754;-76
2023/12/19 12:36:36;;;;;;;8.50;7.70;;;10.50;42.40;;;;;;10445539;28;20316;-75
2023/12/19 12:41:41;;;;;;;7.93;7.17;;;10.50;42.00;;;;;;10452761;28;20702;-75
2023/12/19 12:46:45;;;;;;;8.57;7.77;;;10.50;42.10;;;;;;10451617;28;20268;-75
2023/12/19 12:51:56;;;;;;;8.30;7.60;;;10.40;41.90;;;;;;10451543;28;20327;-76
2023/12/19 12:57:00;;;;;;;7.87;7.17;;;10.30;41.60;;;;;;10450901;28;20264;-75
2023/12/19 13:02:03;;;;;;;6.90;6.30;;;10.30;42.30;;;;;;10451178;28;20255;-76
2023/12/19 13:07:07;;;;;;;7.43;6.80;;;10.20;41.90;;;;;;10449917;28;20237;-75
2023/12/19 13:12:11;;;;;;;7.07;6.47;;;10.10;41.80;;;;;;10443800;28;20662;-73
2023/12/19 13:17:14;;;;;;;7.80;7.10;;;10.10;42.00;;;;;;10444834;28;20241;-73
2023/12/19 13:22:18;;;;;;;7.47;6.77;;;10.10;42.00;;;;;;10441752;28;20233;-74
2023/12/19 13:27:21;;;;;;;7.87;7.13;;;10.00;41.90;;;;;;10431573;28;20323;-73
2023/12/19 13:32:24;;;;;;;7.20;6.60;;;10.00;42.00;;;;;;10430530;28;20238;-72
2023/12/19 13:37:29;;;;;;;7.10;6.50;;;9.90;42.80;;;;;;10435540;28;20226;-73
2023/12/19 13:42:32;;;;;;;7.00;6.30;;;9.90;42.90;;;;;;10435848;28;20279;-73
2023/12/19 13:47:36;;;;;;;7.10;6.50;;;9.80;42.90;;;;;;10431284;28;20231;-74
2023/12/19 13:52:42;;;;;;;7.60;6.90;;;9.70;42.80;;;;;;10433468;28;20229;-73
2023/12/19 13:57:45;;;;;;;7.30;6.70;;;9.70;42.60;;;;;;10443245;28;20237;-74
2023/12/19 14:02:49;;;;;;;7.13;6.43;;;9.60;42.80;;;;;;10435533;28;20315;-73
2023/12/19 14:07:54;;;;;;;7.10;6.50;;;9.50;42.90;;;;;;10446876;28;20803;-74
2023/12/19 14:13:00;;;;;;;7.93;7.13;;;9.50;42.70;;;;;;10434376;28;20217;-73
2023/12/19 14:18:04;;;;;;;7.30;6.60;;;9.40;42.90;;;;;;10440821;28;20409;-76
2023/12/19 14:23:09;;;;;;;8.73;7.87;;;9.30;43.00;;;;;;10445854;28;20233;-76
2023/12/19 14:28:12;;;;;;;8.63;7.87;;;9.30;42.80;;;;;;10446821;28;20247;-76
2023/12/19 14:33:15;;;;;;;7.63;6.97;;;9.30;43.00;;;;;;10446613;28;20792;-76
2023/12/19 14:38:21;;;;;;;8.23;7.53;;;9.10;43.50;;;;;;10445965;28;20757;-76
2023/12/19 14:43:26;;;;;;;9.00;8.20;;;9.20;42.70;;;;;;10446419;28;20282;-76
2023/12/19 14:48:29;;;;;;;12.60;10.27;;;9.10;42.80;;;;;;10446245;28;20244;-76
2023/12/19 14:53:34;;;;;;;8.57;7.77;;;9.00;42.90;;;;;;10446340;28;20235;-76
2023/12/19 14:58:38;;;;;;;8.00;7.30;;;8.90;42.60;;;;;;10445691;28;20319;-76
2023/12/19 15:03:42;;;;;;;10.20;8.53;;;8.90;42.80;;;;;;10445667;28;20229;-76
2023/12/19 15:08:49;;;;;;;16.67;13.73;;;8.80;43.00;;;;;;10442066;28;20232;-75
2023/12/19 15:13:52;;;;;;;23.37;18.27;;;8.80;42.90;;;;;;10445318;28;20243;-75
2023/12/19 15:18:56;;;;;;;17.90;15.60;;;8.70;42.70;;;;;;10442749;28;20224;-75
2023/12/19 15:24:00;;;;;;;20.10;17.37;;;8.60;42.70;;;;;;10432672;28;20757;-75
2023/12/19 15:29:04;;;;;;;18.40;16.43;;;8.50;42.60;;;;;;10435677;28;20228;-75
2023/12/19 15:34:07;;;;;;;14.10;11.20;;;8.50;42.90;;;;;;10442586;28;20233;-76
2023/12/19 15:39:13;;;;;;;9.00;8.10;;;8.40;42.70;;;;;;10444975;28;20259;-76
2023/12/19 15:44:16;;;;;;;6.60;6.00;;;8.40;42.60;;;;;;10444497;28;20232;-75
2023/12/19 15:49:20;;;;;;;6.67;6.07;;;8.30;42.70;;;;;;10444269;28;20332;-76
2023/12/19 15:54:25;;;;;;;6.53;5.80;;;8.30;42.80;;;;;;10444003;28;20243;-75
2023/12/19 15:59:28;;;;;;;6.80;6.20;;;8.20;43.70;;;;;;10443954;28;20313;-76
2023/12/19 16:04:32;;;;;;;7.17;6.47;;;8.30;43.60;;;;;;10443502;28;20233;-76
2023/12/19 16:09:37;;;;;;;12.13;10.53;;;8.30;43.40;;;;;;10443190;28;20304;-76
2023/12/19 16:14:41;;;;;;;12.73;11.50;;;8.30;43.00;;;;;;10434019;28;20224;-76
2023/12/19 16:19:44;;;;;;;14.43;12.60;;;8.20;43.00;;;;;;10434907;28;20247;-76
2023/12/19 16:24:53;;;;;;;15.07;13.47;;;8.10;43.00;;;;;;10432346;28;20232;-76
2023/12/19 16:29:56;;;;;;;13.97;12.57;;;8.10;43.10;;;;;;10433650;28;20232;-75
2023/12/19 16:34:59;;;;;;;16.20;14.30;;;8.10;43.40;;;;;;10439275;28;20231;-74
2023/12/19 16:40:07;;;;;;;16.33;14.63;;;8.10;43.40;;;;;;10435775;28;20316;-75
2023/12/19 16:45:25;;;;;;;38.17;31.37;;;8.10;43.10;;;;;;10439604;28;20232;-75
2023/12/19 16:50:28;;;;;;;22.07;19.67;;;8.10;43.20;;;;;;10439504;28;20828;-75
2023/12/19 16:55:34;;;;;;;23.77;21.03;;;8.00;43.10;;;;;;10438366;28;20233;-74
2023/12/19 17:00:37;;;;;;;19.73;17.67;;;8.00;43.20;;;;;;10438929;28;20243;-75
2023/12/19 17:05:40;;;;;;;21.00;18.80;;;8.10;43.20;;;;;;10433434;28;20812;-73
2023/12/19 17:10:45;;;;;;;19.10;17.10;;;8.10;43.30;;;;;;10441933;28;20233;-73
2023/12/19 17:15:49;;;;;;;24.83;21.37;;;8.10;43.20;;;;;;10441571;28;20237;-73
2023/12/19 17:20:52;;;;;;;16.67;15.07;;;8.10;43.10;;;;;;10433493;28;20221;-73
2023/12/19 17:25:56;;;;;;;13.83;12.50;;;8.10;43.00;;;;;;10438986;28;20480;-73
2023/12/19 17:30:59;;;;;;;17.77;15.97;;;8.10;43.00;;;;;;10448870;28;20771;-73
2023/12/19 17:36:03;;;;;;;14.73;13.33;;;8.10;42.90;;;;;;10448915;28;20244;-73
2023/12/19 17:41:07;;;;;;;12.53;11.33;;;8.10;42.90;;;;;;10448507;28;20245;-73
2023/12/19 17:46:11;;;;;;;14.90;13.37;;;8.10;43.00;;;;;;10448576;28;20715;-73
2023/12/19 17:51:14;;;;;;;17.23;15.53;;;8.00;43.00;;;;;;10448416;28;20239;-73
2023/12/19 17:56:19;;;;;;;17.00;15.30;;;8.00;43.10;;;;;;10448398;28;20236;-73
2023/12/19 18:01:23;;;;;;;17.93;16.20;;;8.00;43.00;;;;;;10448020;28;20231;-73
2023/12/19 18:06:26;;;;;;;16.47;14.77;;;8.00;43.00;;;;;;10447548;28;20236;-73
2023/12/19 18:11:31;;;;;;;19.37;17.40;;;8.00;42.90;;;;;;10447305;28;20264;-73
2023/12/19 18:16:34;;;;;;;30.67;25.13;;;7.90;42.90;;;;;;10447321;28;20236;-73
2023/12/19 18:21:37;;;;;;;28.83;23.57;;;7.80;43.10;;;;;;10447251;28;20247;-73
2023/12/19 18:26:42;;;;;;;20.83;17.23;;;7.80;43.20;;;;;;10446878;28;20237;-73
2023/12/19 18:31:46;;;;;;;13.57;12.17;;;7.80;43.20;;;;;;10446237;28;20244;-73
2023/12/19 18:36:51;;;;;;;15.23;13.70;;;7.80;43.20;;;;;;10445715;28;20319;-73
2023/12/19 18:41:59;;;;;;;19.60;17.50;;;7.80;43.10;;;;;;10445854;28;20225;-73
2023/12/19 18:47:02;;;;;;;20.57;18.37;;;7.80;43.10;;;;;;10445570;28;20255;-73
2023/12/19 18:52:06;;;;;;;18.53;15.17;;;7.70;43.10;;;;;;10446170;28;20259;-73
2023/12/19 18:57:10;;;;;;;14.00;12.60;;;7.70;43.00;;;;;;10445635;28;20320;-74
2023/12/19 19:02:14;;;;;;;13.53;12.17;;;7.60;43.20;;;;;;10445397;28;20290;-73
2023/12/19 19:07:17;;;;;;;16.67;15.17;;;7.50;43.30;;;;;;10445591;28;20283;-73
2023/12/19 19:12:22;;;;;;;16.80;15.17;;;7.40;43.40;;;;;;10440427;28;20288;-73
2023/12/19 19:17:26;;;;;;;16.33;14.73;;;7.30;43.50;;;;;;10445073;28;20812;-73
2023/12/19 19:22:30;;;;;;;15.13;13.63;;;7.20;43.70;;;;;;10444326;28;20991;-73
2023/12/19 19:27:34;;;;;;;14.80;13.33;;;7.10;44.00;;;;;;10444488;28;20340;-73
2023/12/19 19:32:38;;;;;;;19.43;17.53;;;7.10;44.20;;;;;;10442165;28;20241;-73
2023/12/19 19:37:41;;;;;;;15.77;14.13;;;7.10;44.20;;;;;;10441706;28;20636;-73
2023/12/19 19:42:46;;;;;;;19.27;17.27;;;7.00;44.40;;;;;;10442491;28;20317;-74
2023/12/19 19:47:50;;;;;;;20.27;17.47;;;7.00;44.40;;;;;;10434177;28;20256;-74
2023/12/19 19:52:53;;;;;;;15.43;13.83;;;7.00;44.40;;;;;;10434502;28;20228;-74
2023/12/19 19:57:58;;;;;;;16.03;13.77;;;6.90;44.30;;;;;;10430724;28;20235;-75
2023/12/19 20:03:02;;;;;;;18.37;16.03;;;7.00;44.40;;;;;;10434890;28;20229;-74
2023/12/19 20:08:08;;;;;;;15.73;13.97;;;7.10;44.20;;;;;;10428622;28;20799;-74
2023/12/19 20:13:13;;;;;;;13.93;12.53;;;7.10;44.10;;;;;;10429947;28;20251;-75
2023/12/19 20:18:17;;;;;;;15.77;13.57;;;7.10;44.10;;;;;;10431576;28;20316;-75
2023/12/19 20:23:27;;;;;;;15.70;14.10;;;7.00;43.90;;;;;;10431744;28;20232;-74
2023/12/19 20:28:32;;;;;;;16.07;14.47;;;7.10;43.80;;;;;;10435261;28;20334;-76
2023/12/19 20:33:35;;;;;;;14.03;12.63;;;7.00;43.80;;;;;;10433132;28;20229;-76
2023/12/19 20:38:38;;;;;;;14.97;13.47;;;7.00;43.90;;;;;;10437335;28;20652;-77
2023/12/19 20:43:44;;;;;;;14.93;13.23;;;7.00;43.90;;;;;;10441715;28;20247;-77
2023/12/19 20:48:47;;;;;;;14.47;12.97;;;7.00;43.90;;;;;;10441470;28;20320;-77
2023/12/19 20:53:50;;;;;;;14.00;12.50;;;7.00;43.90;;;;;;10441286;28;20252;-77
2023/12/19 20:58:55;;;;;;;11.80;10.60;;;7.00;43.80;;;;;;10445035;28;20237;-77
2023/12/19 21:03:59;;;;;;;14.30;12.90;;;7.00;43.70;;;;;;10446623;28;20225;-76
2023/12/19 21:09:02;;;;;;;13.57;12.27;;;7.00;43.90;;;;;;10447814;28;20676;-79
2023/12/19 21:14:08;;;;;;;11.93;10.90;;;7.00;43.80;;;;;;10443056;28;20221;-79
2023/12/19 21:19:11;;;;;;;13.90;12.20;;;7.00;43.80;;;;;;10445358;28;20328;-79
2023/12/19 21:24:14;;;;;;;13.47;12.07;;;7.00;43.70;;;;;;10441738;28;20225;-79
2023/12/19 21:29:19;;;;;;;13.87;12.53;;;7.00;43.70;;;;;;10447945;28;20251;-80
2023/12/19 21:34:22;;;;;;;13.70;12.30;;;7.00;43.60;;;;;;10444789;28;20233;-79
2023/12/19 21:39:28;;;;;;;11.20;10.03;;;6.90;43.70;;;;;;10443793;28;20228;-79
2023/12/19 21:44:33;;;;;;;8.57;7.77;;;6.80;43.90;;;;;;10440167;28;20312;-79
2023/12/19 21:49:37;;;;;;;8.77;7.97;;;6.70;44.10;;;;;;10444911;28;20260;-79
2023/12/19 21:54:41;;;;;;;8.17;7.37;;;6.70;44.10;;;;;;10441668;28;20232;-79
2023/12/19 21:59:48;;;;;;;7.53;6.80;;;6.80;44.50;;;;;;10440714;28;20316;-79
2023/12/19 22:04:51;;;;;;;7.43;6.73;;;6.80;44.60;;;;;;10440111;28;20523;-79
2023/12/19 22:09:55;;;;;;;7.73;7.03;;;6.90;44.70;;;;;;10441351;28;20221;-79
2023/12/19 22:15:07;;;;;;;7.20;6.60;;;7.00;44.70;;;;;;10439730;28;20853;-79
2023/12/19 22:20:12;;;;;;;7.07;6.47;;;7.10;44.60;;;;;;10437563;28;20225;-78
2023/12/19 22:25:16;;;;;;;6.77;6.17;;;7.20;44.50;;;;;;10427998;28;20703;-79
2023/12/19 22:30:21;;;;;;;7.37;6.50;;;7.20;44.50;;;;;;10426647;28;20316;-79
2023/12/19 22:35:24;;;;;;;7.70;7.00;;;7.20;44.50;;;;;;10432083;28;20841;-79
2023/12/19 22:40:27;;;;;;;7.40;6.70;;;7.20;44.50;;;;;;10428252;28;20230;-79
2023/12/19 22:45:32;;;;;;;7.60;6.80;;;7.30;44.60;;;;;;10430091;28;20229;-79
2023/12/19 22:50:36;;;;;;;6.93;6.33;;;7.30;44.50;;;;;;10429225;28;20300;-79
2023/12/19 22:55:43;;;;;;;7.70;6.80;;;7.30;44.40;;;;;;10425970;28;20327;-79
2023/12/19 23:00:47;;;;;;;6.67;6.03;;;7.30;44.40;;;;;;10433256;28;20861;-79
2023/12/19 23:05:51;;;;;;;6.80;6.10;;;7.20;44.40;;;;;;10425532;28;20235;-79
2023/12/19 23:10:54;;;;;;;6.60;6.00;;;7.20;44.40;;;;;;10422586;28;20313;-79
2023/12/19 23:15:59;;;;;;;6.37;5.77;;;7.30;44.60;;;;;;10424614;28;20233;-79
2023/12/19 23:21:03;;;;;;;6.27;5.77;;;7.30;44.60;;;;;;10424826;28;20229;-79
2023/12/19 23:26:08;;;;;;;6.30;5.70;;;7.40;44.50;;;;;;10423111;28;20233;-80
2023/12/19 23:31:16;;;;;;;6.10;5.60;;;7.50;44.30;;;;;;10426265;28;20236;-79
2023/12/19 23:36:27;;;;;;;5.50;5.03;;;7.60;44.10;;;;;;10427632;28;20232;-79
2023/12/19 23:41:30;;;;;;;4.50;4.10;;;7.60;44.20;;;;;;10421323;28;20230;-79
2023/12/19 23:46:35;;;;;;;3.80;3.40;;;7.60;44.00;;;;;;10423073;28;20233;-79
2023/12/19 23:51:38;;;;;;;3.27;3.07;;;7.70;43.90;;;;;;10428585;28;20331;-79
2023/12/19 23:56:42;;;;;;;3.60;3.30;;;7.80;44.20;;;;;;10422193;28;20237;-79
